createdAt,value
2018-06-14T04:09:36.323Z,6.53
2018-06-14T04:12:04.211Z,6.63
2018-06-14T04:14:31.943Z,6.50
2018-06-14T04:16:59.720Z,6.57
2018-06-14T04:19:27.479Z,5.93
2018-06-14T04:21:55.259Z,6.30
2018-06-14T04:24:23.124Z,6.10
2018-06-14T04:26:50.911Z,6.30
2018-06-14T04:29:18.695Z,6.60
2018-06-14T04:31:46.456Z,6.30
2018-06-14T04:34:14.211Z,6.43
2018-06-14T04:36:41.976Z,6.73
2018-06-14T04:39:10.139Z,6.40
2018-06-14T04:41:38.259Z,6.37
2018-06-14T04:44:06.018Z,6.70
2018-06-14T04:46:33.792Z,6.00
2018-06-14T04:49:01.580Z,5.87
2018-06-14T04:51:29.315Z,6.10
2018-06-14T04:53:57.091Z,6.73
2018-06-14T04:56:24.888Z,6.70
2018-06-14T04:58:52.623Z,6.20
2018-06-14T05:01:20.416Z,6.90
2018-06-14T05:03:48.171Z,6.77
2018-06-14T05:06:15.916Z,6.43
2018-06-14T05:08:43.694Z,6.17
2018-06-14T05:11:11.468Z,5.73
2018-06-14T05:13:39.257Z,6.00
2018-06-14T05:16:06.979Z,6.13
2018-06-14T05:18:34.764Z,6.03
2018-06-14T05:21:02.532Z,5.80
2018-06-14T05:23:30.321Z,5.73
2018-06-14T05:25:58.047Z,5.80
2018-06-14T05:28:25.820Z,6.23
2018-06-14T05:30:53.584Z,5.73
2018-06-14T05:33:21.319Z,5.70
2018-06-14T05:35:49.188Z,6.13
2018-06-14T05:38:17.032Z,5.37
2018-06-14T05:40:45.122Z,5.70
2018-06-14T05:43:12.970Z,5.50
2018-06-14T05:45:40.727Z,5.50
2018-06-14T05:48:08.476Z,5.40
2018-06-14T05:50:36.232Z,7.17
2018-06-14T05:53:04.004Z,5.67
2018-06-14T05:55:31.802Z,5.97
2018-06-14T05:57:59.559Z,6.40
2018-06-14T06:00:27.343Z,6.30
2018-06-14T06:02:55.140Z,6.83
2018-06-14T06:05:22.871Z,6.37
2018-06-14T06:07:50.638Z,8.07
2018-06-14T06:10:18.506Z,7.67
2018-06-14T06:12:46.519Z,9.87
2018-06-14T06:15:14.275Z,10.13
2018-06-14T06:17:42.053Z,9.03
2018-06-14T06:20:14.123Z,8.37
2018-06-14T06:22:41.951Z,8.17
2018-06-14T06:25:09.675Z,8.40
2018-06-14T06:27:37.446Z,9.10
2018-06-14T06:30:05.419Z,9.20
2018-06-14T06:32:33.163Z,9.47
2018-06-14T06:35:01.145Z,8.40
2018-06-14T06:37:28.955Z,8.97
2018-06-14T06:39:57.435Z,8.20
2018-06-14T06:42:25.369Z,8.30
2018-06-14T06:44:53.478Z,8.63
2018-06-14T06:47:21.227Z,8.07
2018-06-14T06:49:49.059Z,7.93
2018-06-14T06:52:16.804Z,7.67
2018-06-14T06:54:44.543Z,7.07
2018-06-14T06:57:12.299Z,7.20
2018-06-14T06:59:40.040Z,7.80
2018-06-14T07:02:07.835Z,8.23
2018-06-14T07:04:35.935Z,8.60
2018-06-14T07:07:03.908Z,8.80
2018-06-14T07:09:31.663Z,8.07
2018-06-14T07:11:59.464Z,7.20
2018-06-14T07:14:27.220Z,6.70
2018-06-14T07:16:54.984Z,6.93
2018-06-14T07:19:22.763Z,7.90
2018-06-14T07:21:50.579Z,7.70
2018-06-14T07:24:18.294Z,7.10
2018-06-14T07:26:46.095Z,7.00
2018-06-14T07:29:13.867Z,7.37
2018-06-14T07:31:41.625Z,6.63
2018-06-14T07:34:09.362Z,7.70
2018-06-14T07:36:37.123Z,7.90
2018-06-14T07:39:08.398Z,7.97
2018-06-14T07:41:36.244Z,8.10
2018-06-14T07:44:04.076Z,7.97
2018-06-14T07:46:32.123Z,8.08
2018-06-14T07:49:00.345Z,7.70
2018-06-14T07:51:28.112Z,7.10
2018-06-14T07:53:55.847Z,7.03
2018-06-14T07:56:23.604Z,6.97
2018-06-14T07:58:51.343Z,7.10
2018-06-14T08:01:19.117Z,6.85
2018-06-14T08:03:46.883Z,6.80
2018-06-14T08:06:14.616Z,6.92
2018-06-14T08:08:42.391Z,6.87
2018-06-14T08:11:10.287Z,5.53
2018-06-14T08:13:38.044Z,4.72
2018-06-14T08:16:05.836Z,4.78
2018-06-14T08:18:33.614Z,4.85
2018-06-14T08:21:02.235Z,5.20
2018-06-14T08:23:30.430Z,5.37
2018-06-14T08:25:58.247Z,5.75
2018-06-14T08:28:26.171Z,5.55
2018-06-14T08:30:54.049Z,5.90
2018-06-14T08:33:21.975Z,5.10
2018-06-14T08:35:49.803Z,4.87
2018-06-14T08:38:17.643Z,5.00
2018-06-14T08:40:45.464Z,4.47
2018-06-14T08:43:13.275Z,4.28
2018-06-14T08:45:41.107Z,5.10
2018-06-14T08:48:08.884Z,5.33
2018-06-14T08:50:36.698Z,5.95
2018-06-14T08:53:04.455Z,5.50
2018-06-14T08:55:32.400Z,5.85
2018-06-14T08:58:00.223Z,5.72
2018-06-14T09:00:28.011Z,5.65
2018-06-14T09:02:55.768Z,5.05
2018-06-14T09:05:23.640Z,4.72
2018-06-14T09:07:51.395Z,4.42
2018-06-14T09:10:19.168Z,3.87
2018-06-14T09:12:46.963Z,4.63
2018-06-14T09:15:14.711Z,4.28
2018-06-14T09:17:42.447Z,4.53
2018-06-14T09:20:10.254Z,4.70
2018-06-14T09:22:38.007Z,4.55
2018-06-14T09:25:05.816Z,4.15
2018-06-14T09:27:33.595Z,4.37
2018-06-14T09:30:01.386Z,4.83
2018-06-14T09:32:29.123Z,4.87
2018-06-14T09:34:56.961Z,4.83
2018-06-14T09:37:24.820Z,5.65
2018-06-14T09:39:52.591Z,5.25
2018-06-14T09:42:20.336Z,5.85
2018-06-14T09:44:48.123Z,6.08
2018-06-14T09:47:15.861Z,7.87
2018-06-14T09:49:43.628Z,8.30
2018-06-14T09:52:11.407Z,7.90
2018-06-14T09:54:39.147Z,6.90
2018-06-14T09:57:06.938Z,6.55
2018-06-14T09:59:34.676Z,7.60
2018-06-14T10:02:02.549Z,7.17
2018-06-14T10:04:30.301Z,7.90
2018-06-14T10:06:58.124Z,8.90
2018-06-14T10:09:25.915Z,7.67
2018-06-14T10:11:53.651Z,7.87
2018-06-14T10:14:21.451Z,8.80
2018-06-14T10:16:49.230Z,7.62
2018-06-14T10:19:16.992Z,8.15
2018-06-14T10:21:44.777Z,8.78
2018-06-14T10:24:12.507Z,9.08
2018-06-14T10:26:40.271Z,8.50
2018-06-14T10:29:08.040Z,9.33
2018-06-14T10:31:35.779Z,8.75
2018-06-14T10:34:03.571Z,9.53
2018-06-14T10:36:31.385Z,9.18
2018-06-14T10:38:59.221Z,9.13
2018-06-14T10:41:27.943Z,7.95
2018-06-14T10:43:55.815Z,8.93
2018-06-14T10:46:23.583Z,9.23
2018-06-14T10:48:51.511Z,9.43
2018-06-14T10:51:19.448Z,8.95
2018-06-14T10:53:47.351Z,8.13
2018-06-14T10:56:15.141Z,7.30
2018-06-14T10:58:43.007Z,7.70
2018-06-14T11:01:10.754Z,8.33
2018-06-14T11:03:38.628Z,8.20
2018-06-14T11:06:06.404Z,9.68
2018-06-14T11:08:34.196Z,10.03
2018-06-14T11:11:02.143Z,10.98
2018-06-14T11:13:29.932Z,8.98
2018-06-14T11:15:57.688Z,8.65
2018-06-14T11:18:25.440Z,8.58
2018-06-14T11:20:53.657Z,6.65
2018-06-14T11:23:21.416Z,7.87
2018-06-14T11:25:49.191Z,6.83
2018-06-14T11:28:16.968Z,7.47
2018-06-14T11:30:44.739Z,9.55
2018-06-14T11:33:12.515Z,11.08
2018-06-14T11:35:40.275Z,10.72
2018-06-14T11:38:08.027Z,9.85
2018-06-14T11:40:35.795Z,10.93
2018-06-14T11:43:03.549Z,11.22
2018-06-14T11:45:31.371Z,10.80
2018-06-14T11:47:59.141Z,8.93
2018-06-14T11:50:26.908Z,9.00
2018-06-14T11:52:54.884Z,9.23
2018-06-14T11:55:22.936Z,8.85
2018-06-14T11:57:50.683Z,9.50
2018-06-14T12:00:18.527Z,10.53
2018-06-14T12:02:46.319Z,10.85
2018-06-14T12:05:14.080Z,10.23
2018-06-14T12:07:41.823Z,10.65
2018-06-14T12:10:09.591Z,10.95
2018-06-14T12:12:37.352Z,10.53
2018-06-14T12:15:05.189Z,9.55
2018-06-14T12:17:32.868Z,10.10
2018-06-14T12:20:00.639Z,8.60
2018-06-14T12:22:28.397Z,8.53
2018-06-14T12:24:56.139Z,9.65
2018-06-14T12:27:23.903Z,9.30
2018-06-14T12:29:51.644Z,8.98
2018-06-14T12:32:19.400Z,9.45
2018-06-14T12:34:47.143Z,8.73
2018-06-14T12:37:14.956Z,9.18
2018-06-14T12:39:42.719Z,8.65
2018-06-14T12:42:10.472Z,9.65
2018-06-14T12:44:38.231Z,8.48
2018-06-14T12:47:05.992Z,8.50
2018-06-14T12:49:33.758Z,8.00
2018-06-14T12:52:01.504Z,8.00
2018-06-14T12:54:29.280Z,8.20
2018-06-14T12:56:57.744Z,7.72
2018-06-14T12:59:25.499Z,8.25
2018-06-14T13:01:53.431Z,10.48
2018-06-14T13:04:21.271Z,11.05
2018-06-14T13:06:49.112Z,10.15
2018-06-14T13:09:16.884Z,9.13
2018-06-14T13:11:44.623Z,9.85
2018-06-14T13:14:12.374Z,9.25
2018-06-14T13:16:40.147Z,9.45
2018-06-14T13:19:07.957Z,9.65
2018-06-14T13:21:35.733Z,9.70
2018-06-14T13:24:03.631Z,8.25
2018-06-14T13:26:31.432Z,6.30
2018-06-14T13:28:59.187Z,6.00
2018-06-14T13:31:26.960Z,6.85
2018-06-14T13:33:54.698Z,7.05
2018-06-14T13:36:22.488Z,6.20
2018-06-14T13:38:50.259Z,6.10
2018-06-14T13:41:18.063Z,5.65
2018-06-14T13:43:45.836Z,6.45
2018-06-14T13:46:13.859Z,5.92
2018-06-14T13:48:41.647Z,6.83
2018-06-14T13:51:09.407Z,7.70
2018-06-14T13:53:37.364Z,7.17
2018-06-14T13:56:05.172Z,6.47
2018-06-14T13:58:32.940Z,5.08
2018-06-14T14:01:00.959Z,6.28
2018-06-14T14:03:28.713Z,7.08
2018-06-14T14:05:56.592Z,6.28
2018-06-14T14:08:24.375Z,7.08
2018-06-14T14:10:52.143Z,7.00
2018-06-14T14:13:19.892Z,6.55
2018-06-14T14:15:47.663Z,5.72
2018-06-14T14:18:15.439Z,5.90
2018-06-14T14:20:43.191Z,5.90
2018-06-14T14:23:10.967Z,6.35
2018-06-14T14:25:38.767Z,6.35
2018-06-14T14:28:06.523Z,6.12
2018-06-14T14:30:34.263Z,6.30
2018-06-14T14:33:02.143Z,6.12
2018-06-14T14:35:29.908Z,6.12
2018-06-14T14:37:57.699Z,6.20
2018-06-14T14:40:25.580Z,6.95
2018-06-14T14:42:53.324Z,5.95
2018-06-14T14:45:21.093Z,7.12
2018-06-14T14:47:48.887Z,6.17
2018-06-14T14:50:16.803Z,6.72
2018-06-14T14:52:44.607Z,6.20
2018-06-14T14:55:12.363Z,6.20
2018-06-14T14:57:40.131Z,5.92
2018-06-14T15:00:07.989Z,5.72
2018-06-14T15:02:35.967Z,6.50
2018-06-14T15:05:04.237Z,6.50
2018-06-14T15:07:31.988Z,7.08
2018-06-14T15:09:59.948Z,7.75
2018-06-14T15:12:27.763Z,6.53
2018-06-14T15:14:55.606Z,6.25
2018-06-14T15:17:23.452Z,6.87
2018-06-14T15:19:52.725Z,7.30
2018-06-14T15:22:22.240Z,6.35
2018-06-14T15:24:51.659Z,7.47
2018-06-14T15:27:19.456Z,7.45
2018-06-14T15:29:47.352Z,7.10
2018-06-14T15:32:15.633Z,7.20
2018-06-14T15:34:43.383Z,7.37
2018-06-14T15:37:11.176Z,6.78
2018-06-14T15:39:38.899Z,6.90
2018-06-14T15:42:06.678Z,5.92
2018-06-14T15:44:34.434Z,6.22
2018-06-14T15:47:02.212Z,6.80
2018-06-14T15:49:30.007Z,7.12
2018-06-14T15:51:58.800Z,8.03
2018-06-14T15:54:27.816Z,7.75
2018-06-14T15:56:55.982Z,6.53
2018-06-14T15:59:23.785Z,7.20
2018-06-14T16:01:51.539Z,7.97
2018-06-14T16:04:21.544Z,6.90
2018-06-14T16:06:51.174Z,6.72
2018-06-14T16:09:21.476Z,6.45
2018-06-14T16:11:50.804Z,6.53
2018-06-14T16:14:20.078Z,7.33
2018-06-14T16:16:49.605Z,7.70
2018-06-14T16:19:19.189Z,8.40
2018-06-14T16:21:49.356Z,7.10
2018-06-14T16:24:19.169Z,7.47
2018-06-14T16:26:48.711Z,7.00
2018-06-14T16:29:18.418Z,6.85
2018-06-14T16:31:48.203Z,7.80
2018-06-14T16:34:18.177Z,8.08
2018-06-14T16:36:48.426Z,6.67
2018-06-14T16:39:18.587Z,6.20
2018-06-14T16:41:46.888Z,7.10
2018-06-14T16:44:17.280Z,7.37
2018-06-14T16:46:47.617Z,7.12
2018-06-14T16:49:17.390Z,7.20
2018-06-14T16:51:48.000Z,7.10
2018-06-14T16:54:18.514Z,6.95
2018-06-14T16:56:49.717Z,7.70
2018-06-14T16:59:19.980Z,7.28
2018-06-14T17:01:49.200Z,8.00
2018-06-14T17:04:19.056Z,7.08
2018-06-14T17:06:48.565Z,6.55
2018-06-14T17:09:19.898Z,9.75
2018-06-14T17:11:50.263Z,7.55
2018-06-14T17:14:20.829Z,6.62
2018-06-14T17:16:51.898Z,6.47
2018-06-14T17:19:21.624Z,7.23
2018-06-14T17:21:51.739Z,7.33
2018-06-14T17:24:22.043Z,6.67
2018-06-14T17:26:52.417Z,7.28
2018-06-14T17:29:22.674Z,6.50
2018-06-14T17:31:52.853Z,7.50
2018-06-14T17:34:22.909Z,6.63
2018-06-14T17:36:53.371Z,7.30
2018-06-14T17:39:23.387Z,7.00
2018-06-14T17:41:54.007Z,7.23
2018-06-14T17:44:23.859Z,14.17
2018-06-14T17:46:53.435Z,11.93
2018-06-14T17:49:29.749Z,7.90
2018-06-14T17:51:59.897Z,9.13
2018-06-14T18:09:56.177Z,8.10
2018-06-14T18:18:41.195Z,8.87
2018-06-14T18:24:18.378Z,9.50
2018-06-14T18:26:47.986Z,9.10
2018-06-14T18:29:35.579Z,8.90
2018-06-14T18:35:12.519Z,9.03
2018-06-14T18:37:41.987Z,8.77
2018-06-14T18:43:18.545Z,14.80
2018-06-14T18:45:48.388Z,9.97
2018-06-14T18:57:42.084Z,9.23
2018-06-14T19:00:14.005Z,8.83
2018-06-14T19:05:50.076Z,9.37
2018-06-14T19:08:20.315Z,10.73
2018-06-14T19:14:14.846Z,10.23
2018-06-14T19:16:42.699Z,9.80
2018-06-14T19:19:10.484Z,9.97
2018-06-14T19:24:44.495Z,9.27
2018-06-14T19:27:12.576Z,9.90
2018-06-14T19:29:40.344Z,9.77
2018-06-14T19:35:14.175Z,9.70
2018-06-14T19:37:43.395Z,9.87
2018-06-14T19:49:42.976Z,10.20
2018-06-14T19:52:10.900Z,9.80
2018-06-14T19:54:38.695Z,9.33
2018-06-14T20:00:06.951Z,10.20
2018-06-14T20:05:41.087Z,10.03
2018-06-14T20:08:08.834Z,10.17
2018-06-14T20:10:36.635Z,10.13
2018-06-14T20:16:23.103Z,10.20
2018-06-14T20:18:50.922Z,10.07
2018-06-14T20:21:18.876Z,10.30
2018-06-14T20:27:19.224Z,9.97
2018-06-14T20:35:53.700Z,9.17
2018-06-14T20:41:28.979Z,10.03
2018-06-14T20:56:18.551Z,9.80
2018-06-14T20:58:46.327Z,10.33
2018-06-14T21:04:20.635Z,10.10
2018-06-14T21:06:48.429Z,10.00
2018-06-14T21:09:16.388Z,10.60
2018-06-14T21:14:52.089Z,9.73
2018-06-14T21:17:20.562Z,10.17
2018-06-14T21:22:55.292Z,10.27
2018-06-14T21:25:23.303Z,10.10
2018-06-14T21:27:51.071Z,10.67
2018-06-14T21:36:42.523Z,10.60
2018-06-14T21:39:35.707Z,10.70
2018-06-14T21:42:04.074Z,11.00
2018-06-14T21:47:39.723Z,10.53
2018-06-14T22:02:23.689Z,11.33
2018-06-14T22:04:51.463Z,11.43
2018-06-14T22:07:19.251Z,12.27
2018-06-14T22:12:53.867Z,12.30
2018-06-14T22:15:48.838Z,12.63
2018-06-14T22:27:37.411Z,12.03
2018-06-14T22:39:54.131Z,10.83
2018-06-14T22:42:36.640Z,10.93
2018-06-14T22:45:04.397Z,11.37
2018-06-14T22:47:40.380Z,10.07
2018-06-14T22:53:14.273Z,8.73
2018-06-14T22:58:48.291Z,6.27
2018-06-14T23:07:40.025Z,4.80
2018-06-14T23:13:17.916Z,4.47
2018-06-14T23:16:04.960Z,4.40
2018-06-14T23:18:34.492Z,4.17
2018-06-14T23:24:08.299Z,4.17
2018-06-14T23:26:36.096Z,4.17
2018-06-14T23:29:29.383Z,4.00
2018-06-14T23:35:03.320Z,4.63
2018-06-14T23:37:39.143Z,4.23
2018-06-14T23:40:10.439Z,4.60
2018-06-14T23:48:50.901Z,4.10
2018-06-14T23:57:40.197Z,4.17
